createdAt,value
2023-01-21T00:01:48.000Z,95.33
2023-01-21T00:04:14.385Z,95.70
2023-01-21T00:06:40.774Z,95.69
2023-01-21T00:09:08.328Z,95.51
2023-01-21T00:11:36.021Z,96.12
2023-01-21T00:14:02.413Z,95.82
2023-01-21T00:16:28.792Z,96.02
2023-01-21T00:18:55.701Z,96.13
2023-01-21T00:21:22.114Z,96.67
2023-01-21T00:23:48.624Z,96.59
2023-01-21T00:26:15.009Z,96.21
2023-01-21T00:28:42.756Z,96.13
2023-01-21T00:31:10.618Z,95.40
2023-01-21T00:33:37.599Z,95.63
2023-01-21T00:36:05.349Z,94.55
2023-01-21T00:38:32.305Z,94.91
2023-01-21T00:40:59.482Z,94.62
2023-01-21T00:43:25.786Z,94.57
2023-01-21T00:45:53.553Z,94.12
2023-01-21T00:48:19.949Z,94.99
2023-01-21T00:50:46.348Z,95.54
2023-01-21T00:53:12.690Z,94.84
2023-01-21T00:55:39.017Z,95.23
2023-01-21T00:58:05.521Z,95.44
2023-01-21T01:00:32.043Z,95.25
2023-01-21T01:02:59.902Z,95.76
2023-01-21T01:05:26.333Z,94.89
2023-01-21T01:07:52.634Z,95.24
2023-01-21T01:10:18.993Z,95.56
2023-01-21T01:12:45.309Z,95.84
2023-01-21T01:15:11.831Z,95.41
2023-01-21T01:17:38.215Z,95.72
2023-01-21T01:20:06.907Z,95.80
2023-01-21T01:22:33.301Z,95.97
2023-01-21T01:24:59.670Z,95.17
2023-01-21T01:27:26.009Z,96.12
2023-01-21T01:29:52.418Z,95.47
2023-01-21T01:32:18.789Z,95.79
2023-01-21T01:34:45.176Z,95.75
2023-01-21T01:37:12.875Z,95.94
2023-01-21T01:39:39.242Z,95.03
2023-01-21T01:42:05.626Z,95.66
2023-01-21T01:45:05.373Z,96.54
2023-01-21T01:47:35.819Z,95.50
2023-01-21T01:50:02.927Z,95.46
2023-01-21T01:52:31.077Z,95.37
2023-01-21T01:54:59.623Z,95.25
2023-01-21T01:57:28.153Z,95.30
2023-01-21T01:59:54.697Z,95.04
2023-01-21T02:02:21.084Z,95.45
2023-01-21T02:04:48.968Z,95.06
2023-01-21T02:07:15.473Z,94.95
2023-01-21T02:09:43.153Z,94.58
2023-01-21T02:12:09.479Z,95.69
2023-01-21T02:14:36.265Z,95.51
2023-01-21T02:17:07.496Z,94.53
2023-01-21T02:19:41.612Z,95.30
2023-01-21T02:22:12.116Z,95.04
2023-01-21T02:24:56.305Z,94.91
2023-01-21T02:27:31.775Z,94.72
2023-01-21T02:30:18.612Z,94.87
2023-01-21T02:33:18.294Z,94.63
2023-01-21T02:35:51.292Z,94.58
2023-01-21T02:38:23.143Z,95.26
2023-01-21T02:40:54.548Z,94.89
2023-01-21T02:43:27.084Z,94.89
2023-01-21T02:45:55.327Z,95.15
2023-01-21T02:48:25.461Z,95.36
2023-01-21T02:50:53.496Z,94.93
2023-01-21T02:53:24.142Z,95.03
2023-01-21T02:55:50.846Z,94.60
2023-01-21T02:58:19.439Z,95.75
2023-01-21T03:00:54.797Z,95.13
2023-01-21T03:03:34.237Z,95.30
2023-01-21T03:06:13.163Z,95.07
2023-01-21T03:08:41.394Z,94.45
2023-01-21T03:11:14.318Z,95.33
2023-01-21T03:13:42.359Z,94.66
2023-01-21T03:16:10.680Z,94.84
2023-01-21T03:18:39.007Z,95.25
2023-01-21T03:21:06.964Z,94.99
2023-01-21T03:23:37.309Z,94.34
2023-01-21T03:26:04.564Z,95.16
2023-01-21T03:28:33.256Z,95.37
2023-01-21T03:31:02.817Z,94.97
2023-01-21T03:33:31.509Z,94.71
2023-01-21T03:36:01.465Z,95.02
2023-01-21T03:38:31.178Z,94.06
2023-01-21T03:41:01.550Z,95.34
2023-01-21T03:43:27.963Z,95.44
2023-01-21T03:45:57.931Z,95.80
2023-01-21T03:48:27.885Z,95.12
2023-01-21T03:50:57.510Z,95.57
2023-01-21T03:53:23.962Z,95.37
2023-01-21T03:55:50.431Z,94.91
2023-01-21T03:58:18.271Z,95.41
2023-01-21T04:00:44.664Z,95.91
2023-01-21T04:03:11.024Z,95.87
2023-01-21T04:05:37.374Z,95.71
2023-01-21T04:08:03.723Z,95.20
2023-01-21T04:10:30.083Z,95.67
2023-01-21T04:12:56.420Z,95.29
2023-01-21T04:15:24.122Z,95.52
2023-01-21T04:17:50.494Z,95.44
2023-01-21T04:20:17.394Z,96.24
2023-01-21T04:22:43.969Z,95.77
2023-01-21T04:25:10.343Z,95.70
2023-01-21T04:27:36.727Z,96.39
2023-01-21T04:30:03.538Z,95.89
2023-01-21T04:32:31.188Z,95.70
2023-01-21T04:34:57.610Z,95.43
2023-01-21T04:37:23.983Z,94.88
2023-01-21T04:39:50.384Z,94.72
2023-01-21T04:42:16.752Z,95.20
2023-01-21T04:44:43.273Z,94.47
2023-01-21T04:47:09.638Z,94.66
2023-01-21T04:49:37.284Z,95.13
2023-01-21T04:52:03.815Z,94.60
2023-01-21T04:54:30.188Z,94.23
2023-01-21T04:56:56.531Z,93.85
2023-01-21T04:59:22.871Z,94.80
2023-01-21T05:01:49.198Z,95.36
2023-01-21T05:04:15.681Z,95.36
2023-01-21T05:06:43.507Z,94.54
2023-01-21T05:09:09.825Z,94.03
2023-01-21T05:11:36.178Z,93.89
2023-01-21T05:14:02.616Z,93.91
2023-01-21T05:16:29.104Z,94.69
2023-01-21T05:18:55.503Z,94.07
2023-01-21T05:21:21.845Z,93.94
2023-01-21T05:23:49.611Z,93.76
2023-01-21T05:26:15.959Z,94.30
2023-01-21T05:28:42.272Z,94.23
2023-01-21T05:31:08.708Z,93.28
2023-01-21T05:33:35.445Z,93.16
2023-01-21T05:36:02.253Z,93.32
2023-01-21T05:38:28.727Z,94.41
2023-01-21T05:41:00.735Z,94.19
2023-01-21T05:43:27.222Z,93.73
2023-01-21T05:45:53.641Z,93.04
2023-01-21T05:48:20.197Z,93.48
2023-01-21T05:50:47.240Z,92.92
2023-01-21T05:53:13.618Z,92.53
2023-01-21T05:55:39.914Z,92.89
2023-01-21T05:58:07.607Z,94.19
2023-01-21T06:00:33.957Z,93.67
2023-01-21T06:03:00.854Z,93.95
2023-01-21T06:05:27.262Z,93.98
2023-01-21T06:07:53.648Z,93.76
2023-01-21T06:10:20.916Z,93.10
2023-01-21T06:12:49.381Z,93.28
2023-01-21T06:15:17.121Z,94.30
2023-01-21T06:17:44.278Z,93.76
2023-01-21T06:20:11.853Z,93.08
2023-01-21T06:22:38.218Z,93.35
2023-01-21T06:25:04.926Z,93.77
2023-01-21T06:27:31.301Z,93.38
2023-01-21T06:29:57.615Z,94.78
2023-01-21T06:32:25.332Z,94.01
2023-01-21T06:34:51.670Z,93.78
2023-01-21T06:37:18.041Z,94.08
2023-01-21T06:39:44.341Z,94.36
2023-01-21T06:42:10.773Z,93.61
2023-01-21T06:44:37.146Z,94.93
2023-01-21T06:47:03.538Z,93.31
2023-01-21T06:49:31.197Z,92.33
2023-01-21T06:51:57.487Z,91.83
2023-01-21T06:54:23.869Z,92.02
2023-01-21T06:56:50.274Z,93.04
2023-01-21T06:59:16.598Z,92.68
2023-01-21T07:01:43.064Z,92.26
2023-01-21T07:04:09.537Z,92.93
2023-01-21T07:06:37.190Z,92.20
2023-01-21T07:09:03.566Z,91.91
2023-01-21T07:11:29.876Z,92.09
2023-01-21T07:13:56.185Z,93.06
2023-01-21T07:16:22.876Z,93.19
2023-01-21T07:18:49.242Z,92.97
2023-01-21T07:21:15.742Z,94.82
2023-01-21T07:23:43.787Z,95.45
2023-01-21T07:26:10.247Z,94.87
2023-01-21T07:28:36.557Z,94.21
2023-01-21T07:31:03.398Z,95.02
2023-01-21T07:33:30.087Z,94.53
2023-01-21T07:35:56.394Z,94.42
2023-01-21T07:38:22.758Z,94.50
2023-01-21T07:40:50.735Z,94.36
2023-01-21T07:43:17.409Z,94.34
2023-01-21T07:45:44.855Z,93.99
2023-01-21T07:48:11.259Z,93.86
2023-01-21T07:50:37.692Z,93.91
2023-01-21T07:53:04.131Z,93.90
2023-01-21T07:55:30.659Z,93.93
2023-01-21T07:57:58.531Z,94.07
2023-01-21T08:00:25.479Z,93.84
2023-01-21T08:02:51.872Z,93.14
2023-01-21T08:05:18.540Z,92.75
2023-01-21T08:07:45.018Z,93.14
2023-01-21T08:10:11.440Z,93.17
2023-01-21T08:12:37.812Z,92.71
2023-01-21T08:15:06.520Z,93.26
2023-01-21T08:17:32.905Z,93.99
2023-01-21T08:19:59.841Z,93.56
2023-01-21T08:22:26.140Z,92.56
2023-01-21T08:24:52.512Z,92.63
2023-01-21T08:27:18.943Z,93.36
2023-01-21T08:29:45.305Z,92.97
2023-01-21T08:32:15.598Z,89.17
2023-01-21T08:34:42.007Z,83.84
2023-01-21T08:37:08.303Z,79.08
2023-01-21T08:39:34.670Z,76.67
2023-01-21T08:42:01.141Z,76.00
2023-01-21T08:44:27.541Z,73.29
2023-01-21T08:46:54.042Z,71.86
2023-01-21T08:49:21.788Z,70.17
2023-01-21T08:51:48.610Z,68.35
2023-01-21T08:54:15.017Z,69.99
2023-01-21T08:56:41.568Z,67.95
2023-01-21T08:59:08.792Z,66.95
2023-01-21T09:01:35.223Z,66.77
2023-01-21T09:04:01.843Z,68.26
2023-01-21T09:06:30.384Z,67.58
2023-01-21T09:08:57.056Z,67.24
2023-01-21T09:11:23.725Z,68.90
2023-01-21T09:13:50.242Z,72.21
2023-01-21T09:16:17.844Z,76.99
2023-01-21T09:18:44.438Z,77.55
2023-01-21T09:21:11.358Z,80.37
2023-01-21T09:23:40.127Z,81.49
2023-01-21T09:26:07.519Z,81.90
2023-01-21T09:28:34.424Z,84.18
2023-01-21T09:31:01.769Z,85.62
2023-01-21T09:33:28.903Z,87.18
2023-01-21T09:35:55.283Z,88.29
2023-01-21T09:38:21.668Z,88.76
2023-01-21T09:40:49.624Z,88.55
2023-01-21T09:43:18.997Z,88.98
2023-01-21T09:45:46.521Z,89.42
2023-01-21T09:48:16.296Z,89.38
2023-01-21T09:50:45.085Z,89.11
2023-01-21T09:53:19.237Z,89.86
2023-01-21T09:55:47.694Z,90.04
2023-01-21T09:58:20.406Z,89.30
2023-01-21T10:00:49.253Z,89.37
2023-01-21T10:03:24.443Z,89.83
2023-01-21T10:06:08.651Z,89.62
2023-01-21T10:08:41.828Z,89.62
2023-01-21T10:11:15.681Z,88.69
2023-01-21T10:13:49.307Z,88.45
2023-01-21T10:16:20.219Z,88.26
2023-01-21T10:18:48.303Z,87.79
2023-01-21T10:21:18.570Z,87.97
2023-01-21T10:23:47.847Z,88.23
2023-01-21T10:26:14.493Z,88.38
2023-01-21T10:28:42.495Z,87.81
2023-01-21T10:31:18.187Z,87.13
2023-01-21T10:33:44.555Z,87.89
2023-01-21T10:36:18.091Z,86.58
2023-01-21T10:38:48.567Z,86.90
2023-01-21T10:41:24.803Z,86.28
2023-01-21T10:43:54.583Z,87.10
2023-01-21T10:46:27.987Z,86.55
2023-01-21T10:48:58.663Z,85.63
2023-01-21T10:51:28.907Z,86.67
2023-01-21T10:53:59.026Z,86.58
2023-01-21T10:56:35.143Z,86.32
2023-01-21T10:59:03.843Z,87.51
2023-01-21T11:01:33.151Z,86.55
2023-01-21T11:04:03.148Z,87.04
2023-01-21T11:06:31.383Z,87.43
2023-01-21T11:08:59.933Z,86.44
2023-01-21T11:11:27.940Z,86.81
2023-01-21T11:13:54.953Z,86.66
2023-01-21T11:16:33.657Z,87.79
2023-01-21T11:19:00.008Z,86.45
2023-01-21T11:21:26.543Z,86.75
2023-01-21T11:23:53.520Z,86.52
2023-01-21T11:26:21.099Z,86.05
2023-01-21T11:28:47.486Z,85.95
2023-01-21T11:31:15.114Z,84.53
2023-01-21T11:33:43.340Z,85.10
2023-01-21T11:36:11.199Z,86.35
2023-01-21T11:38:37.881Z,85.85
2023-01-21T11:41:05.741Z,86.41
2023-01-21T11:43:33.464Z,86.67
2023-01-21T11:48:26.555Z,86.62
2023-01-21T11:51:05.283Z,86.01
2023-01-21T11:53:31.641Z,86.03
2023-01-21T11:55:58.053Z,85.89
2023-01-21T11:58:26.232Z,86.87
2023-01-21T12:00:54.183Z,85.53
2023-01-21T12:03:22.509Z,85.25
2023-01-21T12:05:50.807Z,84.96
2023-01-21T12:08:21.076Z,85.50
2023-01-21T12:10:47.524Z,85.76
2023-01-21T12:13:18.408Z,85.45
2023-01-21T12:15:51.672Z,85.09
2023-01-21T12:18:24.299Z,84.62
2023-01-21T12:20:55.570Z,84.24
2023-01-21T12:23:31.584Z,83.70
2023-01-21T12:25:58.702Z,83.96
2023-01-21T12:28:37.500Z,82.88
2023-01-21T12:31:10.144Z,82.61
2023-01-21T12:33:41.643Z,83.63
2023-01-21T12:36:10.992Z,83.64
2023-01-21T12:38:39.770Z,84.22
2023-01-21T12:41:09.504Z,84.34
2023-01-21T12:43:37.679Z,84.70
2023-01-21T12:46:06.443Z,84.83
2023-01-21T12:48:35.528Z,84.57
2023-01-21T12:51:04.370Z,85.05
2023-01-21T12:53:36.063Z,85.13
2023-01-21T12:56:12.331Z,84.85
2023-01-21T12:58:40.674Z,85.31
2023-01-21T13:01:09.391Z,85.19
2023-01-21T13:03:41.800Z,85.01
2023-01-21T13:06:10.296Z,85.34
2023-01-21T13:08:47.212Z,84.98
2023-01-21T13:11:18.287Z,84.48
2023-01-21T13:13:48.852Z,84.97
2023-01-21T13:16:15.158Z,85.54
2023-01-21T13:18:43.102Z,85.64
2023-01-21T13:21:14.096Z,85.51
2023-01-21T13:23:45.664Z,85.13
2023-01-21T13:26:19.313Z,86.43
2023-01-21T13:28:50.950Z,86.58
2023-01-21T13:31:20.673Z,86.01
2023-01-21T13:33:54.890Z,86.44
2023-01-21T13:36:30.091Z,85.69
2023-01-21T13:39:01.005Z,84.99
2023-01-21T13:41:35.997Z,84.52
2023-01-21T13:44:24.235Z,83.57
2023-01-21T13:46:56.171Z,82.81
2023-01-21T13:49:36.432Z,81.61
2023-01-21T13:52:05.219Z,81.06
2023-01-21T13:54:40.735Z,81.57
2023-01-21T13:57:21.940Z,81.80
2023-01-21T13:59:52.003Z,81.65
2023-01-21T14:02:22.923Z,82.37
2023-01-21T14:04:52.913Z,81.86
2023-01-21T14:07:22.511Z,81.50
2023-01-21T14:09:51.177Z,81.00
2023-01-21T14:12:20.991Z,81.55
2023-01-21T14:15:08.252Z,81.68
2023-01-21T14:17:53.379Z,81.46
2023-01-21T14:20:28.015Z,81.82
2023-01-21T14:23:02.005Z,81.14
2023-01-21T14:25:36.271Z,82.19
2023-01-21T14:28:08.685Z,82.33
2023-01-21T14:30:39.455Z,82.57
2023-01-21T14:33:09.114Z,83.29
2023-01-21T14:35:41.601Z,83.07
2023-01-21T14:38:12.845Z,83.01
2023-01-21T14:40:44.705Z,83.22
2023-01-21T14:43:17.952Z,84.23
2023-01-21T14:45:51.329Z,84.03
2023-01-21T14:48:27.784Z,83.60
2023-01-21T14:51:08.506Z,83.93
2023-01-21T14:53:42.857Z,83.97
2023-01-21T14:56:16.085Z,83.62
2023-01-21T14:58:44.800Z,84.28
2023-01-21T15:01:24.114Z,84.46
2023-01-21T15:03:50.675Z,84.34
2023-01-21T15:06:21.103Z,84.65
2023-01-21T15:08:49.234Z,84.00
2023-01-21T15:11:19.201Z,84.82
2023-01-21T15:13:46.342Z,83.99
2023-01-21T15:16:15.111Z,84.61
2023-01-21T15:18:42.282Z,83.99
2023-01-21T15:21:27.373Z,83.26
2023-01-21T15:24:13.972Z,83.54
2023-01-21T15:26:40.296Z,84.17
2023-01-21T15:29:25.160Z,83.62
2023-01-21T15:31:51.695Z,83.03
2023-01-21T15:34:20.263Z,82.85
2023-01-21T15:36:47.577Z,82.73
2023-01-21T15:39:17.135Z,82.66
2023-01-21T15:41:51.647Z,82.72
2023-01-21T15:44:23.189Z,82.84
2023-01-21T15:46:55.065Z,83.03
2023-01-21T15:49:30.206Z,82.21
2023-01-21T15:52:01.459Z,81.88
2023-01-21T15:54:35.916Z,82.28
2023-01-21T15:57:10.567Z,81.83
2023-01-21T15:59:48.310Z,80.61
2023-01-21T16:02:16.719Z,81.15
2023-01-21T16:04:49.402Z,80.32
2023-01-21T16:07:23.270Z,80.50
2023-01-21T16:09:58.663Z,81.00
2023-01-21T16:12:31.228Z,80.94
2023-01-21T16:15:00.145Z,81.31
2023-01-21T16:17:35.909Z,81.68
2023-01-21T16:20:03.847Z,81.38
2023-01-21T16:22:32.537Z,81.03
2023-01-21T16:25:02.382Z,80.78
2023-01-21T16:27:30.296Z,81.81
2023-01-21T16:29:57.356Z,82.85
2023-01-21T16:32:24.135Z,82.46
2023-01-21T16:34:50.447Z,83.12
2023-01-21T16:37:18.158Z,82.62
2023-01-21T16:39:47.741Z,81.97
2023-01-21T16:42:23.626Z,82.27
2023-01-21T16:44:49.957Z,81.69
2023-01-21T16:47:20.121Z,81.68
2023-01-21T16:49:46.500Z,81.14
2023-01-21T16:52:16.164Z,81.14
2023-01-21T16:54:50.119Z,81.01
2023-01-21T16:57:29.079Z,80.77
2023-01-21T16:59:55.599Z,81.09
2023-01-21T17:02:23.298Z,80.77
2023-01-21T17:04:49.705Z,81.24
2023-01-21T17:07:17.499Z,80.70
2023-01-21T17:09:43.864Z,80.25
2023-01-21T17:12:16.272Z,80.78
2023-01-21T17:14:51.361Z,80.46
2023-01-21T17:17:27.253Z,80.75
2023-01-21T17:19:53.554Z,81.43
2023-01-21T17:22:21.501Z,81.33
2023-01-21T17:25:02.696Z,81.48
2023-01-21T17:27:29.983Z,80.77
2023-01-21T17:30:16.133Z,81.27
2023-01-21T17:32:42.461Z,81.07
2023-01-21T17:35:10.854Z,81.56
2023-01-21T17:37:41.586Z,82.07
2023-01-21T17:40:22.585Z,82.64
2023-01-21T17:42:48.974Z,82.46
2023-01-21T17:45:19.159Z,82.41
2023-01-21T17:48:07.880Z,82.81
2023-01-21T17:50:35.229Z,82.36
2023-01-21T17:53:03.200Z,82.60
2023-01-21T17:55:34.777Z,82.87
2023-01-21T17:58:04.121Z,82.84
2023-01-21T18:00:35.062Z,82.73
2023-01-21T18:03:01.721Z,82.83
2023-01-21T18:05:28.458Z,82.94
2023-01-21T18:07:54.797Z,82.85
2023-01-21T18:10:24.099Z,82.75
2023-01-21T18:12:50.430Z,83.00
2023-01-21T18:15:17.810Z,83.31
2023-01-21T18:17:48.773Z,82.69
2023-01-21T18:20:16.896Z,83.05
2023-01-21T18:22:43.769Z,82.17
2023-01-21T18:25:11.505Z,82.73
2023-01-21T18:27:37.944Z,82.67
2023-01-21T18:30:09.423Z,82.07
2023-01-21T18:32:35.859Z,82.85
2023-01-21T18:35:03.849Z,82.02
2023-01-21T18:37:30.208Z,82.44
2023-01-21T18:39:59.624Z,81.59
2023-01-21T18:42:25.951Z,82.09
2023-01-21T18:44:52.287Z,81.88
2023-01-21T18:47:19.151Z,81.96
2023-01-21T18:49:45.602Z,81.49
2023-01-21T18:52:16.921Z,81.58
2023-01-21T18:54:46.328Z,81.33
2023-01-21T18:57:14.557Z,81.71
2023-01-21T18:59:40.894Z,81.73
2023-01-21T19:02:10.566Z,81.31
2023-01-21T19:04:36.921Z,81.14
2023-01-21T19:07:03.265Z,80.96
2023-01-21T19:09:30.949Z,81.77
2023-01-21T19:11:57.279Z,81.29
2023-01-21T19:14:25.991Z,82.06
2023-01-21T19:16:52.285Z,81.68
2023-01-21T19:19:18.946Z,81.71
2023-01-21T19:21:45.316Z,81.37
2023-01-21T19:24:12.401Z,82.08
2023-01-21T19:26:40.236Z,81.42
2023-01-21T19:29:10.097Z,81.23
2023-01-21T19:31:36.486Z,81.66
2023-01-21T19:34:02.824Z,82.08
2023-01-21T19:36:29.178Z,81.63
2023-01-21T19:39:08.295Z,80.85
2023-01-21T19:41:34.628Z,81.61
2023-01-21T19:44:02.255Z,81.72
2023-01-21T19:46:28.670Z,82.32
2023-01-21T19:48:55.101Z,82.27
2023-01-21T19:51:24.552Z,82.92
2023-01-21T19:53:50.959Z,82.47
2023-01-21T19:56:22.072Z,82.97
2023-01-21T19:58:48.460Z,83.31
2023-01-21T20:01:16.223Z,82.75
2023-01-21T20:03:54.622Z,83.09
2023-01-21T20:06:25.308Z,83.32
2023-01-21T20:08:52.134Z,82.95
2023-01-21T20:11:18.454Z,83.51
2023-01-21T20:13:44.789Z,83.38
2023-01-21T20:16:14.049Z,83.13
2023-01-21T20:18:41.790Z,83.84
2023-01-21T20:21:08.135Z,83.48
2023-01-21T20:23:34.589Z,83.72
2023-01-21T20:26:00.945Z,84.01
2023-01-21T20:28:33.416Z,84.11
2023-01-21T20:30:59.769Z,84.18
2023-01-21T20:33:29.110Z,84.44
2023-01-21T20:36:06.414Z,84.49
2023-01-21T20:38:33.771Z,84.91
2023-01-21T20:41:00.857Z,85.02
2023-01-21T20:43:28.802Z,85.12
2023-01-21T20:45:57.398Z,85.28
2023-01-21T20:48:25.714Z,85.10
2023-01-21T20:50:52.355Z,84.95
2023-01-21T20:53:20.174Z,85.23
2023-01-21T20:55:47.574Z,85.15
2023-01-21T20:58:14.346Z,85.24
2023-01-21T21:00:40.978Z,85.22
2023-01-21T21:03:07.811Z,85.75
2023-01-21T21:05:34.303Z,86.00
2023-01-21T21:08:00.636Z,85.63
2023-01-21T21:10:29.138Z,85.55
2023-01-21T21:12:55.813Z,86.71
2023-01-21T21:15:22.120Z,87.75
2023-01-21T21:17:48.677Z,87.55
2023-01-21T21:20:20.334Z,88.01
2023-01-21T21:22:46.848Z,88.79
2023-01-21T21:25:13.819Z,89.03
2023-01-21T21:27:41.561Z,89.19
2023-01-21T21:30:12.006Z,89.79
2023-01-21T21:32:38.320Z,89.15
2023-01-21T21:35:05.569Z,90.17
2023-01-21T21:37:31.902Z,89.57
2023-01-21T21:39:58.340Z,90.14
2023-01-21T21:42:24.669Z,90.32
2023-01-21T21:44:52.379Z,90.32
2023-01-21T21:47:18.724Z,91.60
2023-01-21T21:49:45.108Z,91.32
2023-01-21T21:52:11.408Z,91.46
2023-01-21T21:54:37.721Z,91.95
2023-01-21T21:57:04.133Z,92.37
2023-01-21T21:59:30.442Z,92.34
2023-01-21T22:01:58.204Z,92.30
2023-01-21T22:04:24.537Z,92.82
2023-01-21T22:06:50.885Z,92.68
2023-01-21T22:09:17.189Z,92.71
2023-01-21T22:11:43.520Z,92.87
2023-01-21T22:14:09.942Z,93.16
2023-01-21T22:16:36.316Z,92.28
2023-01-21T22:19:04.097Z,93.60
2023-01-21T22:21:31.389Z,93.70
2023-01-21T22:23:57.741Z,93.81
2023-01-21T22:26:24.796Z,93.75
2023-01-21T22:28:51.124Z,93.55
2023-01-21T22:31:18.398Z,94.04
2023-01-21T22:33:44.943Z,93.78
2023-01-21T22:36:13.353Z,94.37
2023-01-21T22:38:40.909Z,93.59
2023-01-21T22:41:07.859Z,93.69
2023-01-21T22:43:34.175Z,93.77
2023-01-21T22:46:00.972Z,93.82
2023-01-21T22:48:27.500Z,93.50
2023-01-21T22:50:54.552Z,93.59
2023-01-21T22:53:22.796Z,93.75
2023-01-21T22:55:52.642Z,93.27
2023-01-21T22:58:18.930Z,93.02
2023-01-21T23:00:45.459Z,92.91
2023-01-21T23:03:11.910Z,92.88
2023-01-21T23:05:38.210Z,92.95
2023-01-21T23:08:04.683Z,93.28
2023-01-21T23:10:32.383Z,93.04
2023-01-21T23:12:58.702Z,93.25
2023-01-21T23:15:25.310Z,94.33
2023-01-21T23:17:51.650Z,94.74
2023-01-21T23:20:18.400Z,94.64
2023-01-21T23:22:44.893Z,94.59
2023-01-21T23:25:11.950Z,94.66
2023-01-21T23:27:39.752Z,94.82
2023-01-21T23:30:06.946Z,94.62
2023-01-21T23:32:33.310Z,94.56
2023-01-21T23:35:00.934Z,94.68
2023-01-21T23:37:27.275Z,94.75
2023-01-21T23:39:53.555Z,94.54
2023-01-21T23:42:19.842Z,94.16
2023-01-21T23:44:47.491Z,94.70
2023-01-21T23:47:13.801Z,94.34
2023-01-21T23:49:40.091Z,94.30
2023-01-21T23:52:06.392Z,93.73
2023-01-21T23:54:32.715Z,94.00
2023-01-21T23:56:58.997Z,94.76
2023-01-21T23:59:25.303Z,94.44
